createdAt,value
2017-11-29T00:00:04.619Z,0
2017-11-29T00:05:03.223Z,0
2017-11-29T00:10:02.696Z,0
2017-11-29T00:15:03.121Z,0
2017-11-29T00:20:02.650Z,0
2017-11-29T00:25:03.401Z,0
2017-11-29T00:35:02.611Z,0
2017-11-29T00:40:03.180Z,0
2017-11-29T00:45:02.565Z,0
2017-11-29T00:50:03.038Z,0
2017-11-29T00:55:02.536Z,0
2017-11-29T01:00:03.160Z,0
2017-11-29T01:05:03.316Z,0
2017-11-29T01:10:02.972Z,0
2017-11-29T01:15:02.467Z,0
2017-11-29T01:20:02.912Z,0
2017-11-29T01:25:02.558Z,0
2017-11-29T01:30:02.994Z,0
2017-11-29T01:35:02.679Z,0
2017-11-29T01:40:03.231Z,0
2017-11-29T01:45:02.775Z,0
2017-11-29T01:50:03.373Z,0
2017-11-29T01:55:02.827Z,0
2017-11-29T02:00:02.617Z,0
2017-11-29T02:05:03.284Z,0
2017-11-29T02:10:02.859Z,0
2017-11-29T02:15:03.298Z,0
2017-11-29T02:20:02.860Z,0
2017-11-29T02:25:02.453Z,0
2017-11-29T02:30:03.127Z,0
2017-11-29T02:35:02.617Z,0
2017-11-29T02:40:03.287Z,0
2017-11-29T02:45:02.773Z,0
2017-11-29T02:50:03.229Z,0
2017-11-29T02:55:02.829Z,0
2017-11-29T03:00:03.457Z,0
2017-11-29T03:05:03.104Z,0
2017-11-29T03:10:02.743Z,0
2017-11-29T03:15:03.238Z,0
2017-11-29T03:20:02.974Z,0
2017-11-29T03:25:02.660Z,0
2017-11-29T03:30:03.258Z,0
2017-11-29T03:35:02.882Z,0
2017-11-29T03:40:03.416Z,0
2017-11-29T03:45:02.835Z,0
2017-11-29T03:50:03.449Z,0
2017-11-29T03:55:02.876Z,0
2017-11-29T04:00:03.464Z,0
2017-11-29T04:05:02.966Z,0
2017-11-29T04:10:03.464Z,0
2017-11-29T04:15:02.939Z,0
2017-11-29T04:20:02.512Z,0
2017-11-29T04:25:02.950Z,0
2017-11-29T04:30:02.605Z,0
2017-11-29T04:35:03.268Z,0
2017-11-29T04:40:02.885Z,0
2017-11-29T04:45:03.440Z,0
2017-11-29T04:50:02.997Z,0
2017-11-29T04:55:02.567Z,0
2017-11-29T05:00:03.375Z,0
2017-11-29T05:05:02.895Z,0
2017-11-29T05:10:03.391Z,0
2017-11-29T05:15:02.961Z,0
2017-11-29T05:20:02.458Z,0
2017-11-29T05:25:03.048Z,0
2017-11-29T05:30:02.688Z,0
2017-11-29T05:35:03.305Z,0
2017-11-29T05:40:02.851Z,0
2017-11-29T05:45:03.276Z,0
2017-11-29T05:50:02.765Z,0
2017-11-29T05:55:03.224Z,0
2017-11-29T06:00:02.749Z,0
2017-11-29T06:05:03.264Z,0
2017-11-29T06:10:02.792Z,0
2017-11-29T06:15:03.280Z,0
2017-11-29T06:20:02.829Z,0
2017-11-29T06:25:03.319Z,0
2017-11-29T06:30:02.922Z,0
2017-11-29T06:35:03.407Z,0
2017-11-29T06:40:02.969Z,1
2017-11-29T06:45:02.485Z,4
2017-11-29T06:50:03.111Z,10
2017-11-29T06:55:02.723Z,21
2017-11-29T07:00:03.445Z,34
2017-11-29T07:05:02.957Z,49
2017-11-29T07:10:02.610Z,63
2017-11-29T07:15:03.227Z,97
2017-11-29T07:20:02.698Z,131
2017-11-29T07:25:03.229Z,251
2017-11-29T07:30:02.672Z,317
2017-11-29T07:35:03.286Z,370
2017-11-29T07:40:02.901Z,456
2017-11-29T07:45:03.427Z,717
2017-11-29T07:50:02.967Z,853
2017-11-29T07:55:02.487Z,806
2017-11-29T08:00:02.978Z,852
2017-11-29T08:05:02.645Z,781
2017-11-29T08:10:03.249Z,789
2017-11-29T08:15:02.677Z,936
2017-11-29T08:20:03.241Z,965
2017-11-29T08:25:02.896Z,992
2017-11-29T08:30:03.478Z,1000
2017-11-29T08:35:03.049Z,963
2017-11-29T08:40:02.676Z,1000
2017-11-29T08:45:03.174Z,1000
2017-11-29T08:50:02.662Z,1000
2017-11-29T08:55:03.221Z,1000
2017-11-29T09:00:02.638Z,1000
2017-11-29T09:05:03.262Z,1000
2017-11-29T09:10:02.739Z,1000
2017-11-29T09:15:03.199Z,1000
2017-11-29T09:20:02.651Z,1000
2017-11-29T09:25:03.066Z,1000
2017-11-29T09:30:02.739Z,1000
2017-11-29T09:35:03.255Z,1000
2017-11-29T09:40:02.775Z,1000
2017-11-29T09:45:03.380Z,1000
2017-11-29T09:50:02.994Z,1000
2017-11-29T09:55:02.627Z,1000
2017-11-29T10:00:03.289Z,1000
2017-11-29T10:05:02.909Z,1000
2017-11-29T10:10:02.725Z,1000
2017-11-29T10:15:03.265Z,1000
2017-11-29T10:20:02.906Z,1000
2017-11-29T10:25:02.598Z,1000
2017-11-29T10:30:03.148Z,1000
2017-11-29T10:35:02.646Z,1000
2017-11-29T10:40:03.226Z,1000
2017-11-29T10:45:02.697Z,1000
2017-11-29T10:50:03.288Z,1000
2017-11-29T10:55:02.690Z,1000
2017-11-29T11:00:03.273Z,1000
2017-11-29T11:05:02.844Z,2000
2017-11-29T11:10:02.619Z,2000
2017-11-29T11:15:03.193Z,2000
2017-11-29T11:20:02.812Z,2000
2017-11-29T11:25:02.431Z,2000
2017-11-29T11:30:03.009Z,2000
2017-11-29T11:35:02.470Z,1000
2017-11-29T11:40:03.065Z,1000
2017-11-29T11:45:02.500Z,1000
2017-11-29T11:50:03.050Z,1000
2017-11-29T11:55:02.662Z,1000
2017-11-29T12:00:03.229Z,1000
2017-11-29T12:05:02.657Z,1000
2017-11-29T12:10:03.346Z,1000
2017-11-29T12:15:02.822Z,1000
2017-11-29T12:20:03.446Z,1000
2017-11-29T12:25:03.013Z,1000
2017-11-29T12:30:03.438Z,1000
2017-11-29T12:35:02.869Z,958
2017-11-29T12:40:02.504Z,1000
2017-11-29T12:45:03.242Z,1000
2017-11-29T12:50:02.759Z,1000
2017-11-29T12:55:03.384Z,865
2017-11-29T13:00:02.825Z,942
2017-11-29T13:05:03.437Z,676
2017-11-29T13:10:03.165Z,660
2017-11-29T13:15:02.630Z,660
2017-11-29T13:20:03.234Z,779
2017-11-29T13:25:02.714Z,830
2017-11-29T13:30:03.280Z,830
2017-11-29T13:35:02.904Z,829
2017-11-29T13:40:03.413Z,857
2017-11-29T13:45:03.064Z,829
2017-11-29T13:50:02.557Z,799
2017-11-29T13:55:03.187Z,1000
2017-11-29T14:00:02.844Z,1000
2017-11-29T14:05:03.390Z,1000
2017-11-29T14:10:03.014Z,1000
2017-11-29T14:15:02.844Z,1000
2017-11-29T14:20:03.452Z,966
2017-11-29T14:25:03.033Z,827
2017-11-29T14:30:02.662Z,726
2017-11-29T14:35:03.296Z,756
2017-11-29T14:40:02.886Z,857
2017-11-29T14:45:02.488Z,885
2017-11-29T14:50:03.233Z,860
2017-11-29T14:55:02.677Z,749
2017-11-29T15:00:03.164Z,619
2017-11-29T15:05:02.726Z,496
2017-11-29T15:10:03.405Z,440
2017-11-29T15:15:02.967Z,340
2017-11-29T15:20:02.719Z,209
2017-11-29T15:25:03.209Z,110
2017-11-29T15:30:02.725Z,80
2017-11-29T15:35:03.231Z,66
2017-11-29T15:40:02.842Z,57
2017-11-29T15:45:03.346Z,43
2017-11-29T15:50:02.906Z,28
2017-11-29T15:55:03.325Z,12
2017-11-29T16:00:02.947Z,6
2017-11-29T16:05:02.605Z,2
2017-11-29T16:10:03.103Z,1
2017-11-29T16:15:02.679Z,0
2017-11-29T16:20:03.193Z,0
2017-11-29T16:25:02.715Z,0
2017-11-29T16:30:03.185Z,0
2017-11-29T16:35:02.721Z,0
2017-11-29T16:40:03.265Z,0
2017-11-29T16:45:02.809Z,0
2017-11-29T16:50:03.422Z,0
2017-11-29T16:55:03.150Z,0
2017-11-29T17:00:02.721Z,0
2017-11-29T17:05:03.204Z,0
2017-11-29T17:10:02.716Z,0
2017-11-29T17:15:03.297Z,0
2017-11-29T17:20:02.787Z,0
2017-11-29T17:25:03.240Z,0
2017-11-29T17:35:03.174Z,0
2017-11-29T17:40:02.692Z,0
2017-11-29T17:45:03.335Z,0
2017-11-29T17:50:03.000Z,0
2017-11-29T17:55:02.565Z,0
2017-11-29T18:00:03.075Z,0
2017-11-29T18:05:02.585Z,0
2017-11-29T18:10:03.104Z,0
2017-11-29T18:15:02.771Z,0
2017-11-29T18:20:03.320Z,0
2017-11-29T18:25:02.923Z,0
2017-11-29T18:30:03.434Z,0
2017-11-29T18:35:03.040Z,0
2017-11-29T18:40:02.813Z,0
2017-11-29T18:45:02.492Z,0
2017-11-29T18:50:03.187Z,0
2017-11-29T18:55:02.792Z,0
2017-11-29T19:00:03.290Z,0
2017-11-29T19:05:02.865Z,0
2017-11-29T19:10:02.508Z,0
2017-11-29T19:15:03.171Z,0
2017-11-29T19:20:02.728Z,0
2017-11-29T19:25:03.444Z,0
2017-11-29T19:30:03.024Z,0
2017-11-29T19:35:02.682Z,0
2017-11-29T19:40:03.276Z,0
2017-11-29T19:45:02.885Z,0
2017-11-29T19:50:03.415Z,0
2017-11-29T19:55:03.021Z,0
2017-11-29T20:00:02.565Z,0
2017-11-29T20:05:03.273Z,0
2017-11-29T20:10:02.763Z,0
2017-11-29T20:15:03.380Z,0
2017-11-29T20:20:02.858Z,0
2017-11-29T20:25:03.327Z,0
2017-11-29T20:30:02.945Z,0
2017-11-29T20:35:02.545Z,0
2017-11-29T20:40:03.108Z,0
2017-11-29T20:45:02.749Z,0
2017-11-29T20:50:03.337Z,0
2017-11-29T20:55:02.998Z,0
2017-11-29T21:00:02.625Z,0
2017-11-29T21:05:03.268Z,0
2017-11-29T21:10:02.811Z,0
2017-11-29T21:15:03.356Z,0
2017-11-29T21:20:02.855Z,0
2017-11-29T21:25:03.397Z,0
2017-11-29T21:30:02.852Z,0
2017-11-29T21:35:02.523Z,0
2017-11-29T21:40:02.984Z,0
2017-11-29T21:45:03.382Z,0
2017-11-29T21:50:03.041Z,0
2017-11-29T21:55:02.748Z,0
2017-11-29T22:00:03.623Z,0
2017-11-29T22:05:03.264Z,0
2017-11-29T22:10:02.737Z,0
2017-11-29T22:15:03.408Z,0
2017-11-29T22:20:02.882Z,0
2017-11-29T22:25:03.558Z,0
2017-11-29T22:30:03.003Z,0
2017-11-29T22:35:02.655Z,0
2017-11-29T22:40:03.360Z,0
2017-11-29T22:45:02.945Z,0
2017-11-29T22:50:02.611Z,0
2017-11-29T22:55:03.226Z,0
2017-11-29T23:00:02.664Z,0
2017-11-29T23:05:03.128Z,0
2017-11-29T23:10:02.852Z,0
2017-11-29T23:15:03.388Z,0
2017-11-29T23:20:03.023Z,0
2017-11-29T23:25:02.526Z,0
2017-11-29T23:30:03.180Z,0
2017-11-29T23:35:02.793Z,0
2017-11-29T23:40:03.267Z,0
2017-11-29T23:45:02.853Z,0
2017-11-29T23:50:02.568Z,0
2017-11-29T23:55:03.125Z,0
